createdAt,value
2019-02-07T00:00:22.262Z,1.18
2019-02-07T00:01:22.409Z,1.21
2019-02-07T00:02:22.552Z,1.36
2019-02-07T00:03:22.694Z,1.28
2019-02-07T00:04:22.837Z,1.18
2019-02-07T00:05:22.983Z,1.26
2019-02-07T00:06:23.124Z,1.33
2019-02-07T00:07:23.266Z,1.28
2019-02-07T00:08:23.412Z,1.19
2019-02-07T00:09:23.555Z,1.25
2019-02-07T00:10:23.698Z,1.28
2019-02-07T00:11:23.843Z,1.34
2019-02-07T00:12:23.988Z,1.32
2019-02-07T00:13:24.131Z,1.25
2019-02-07T00:14:24.274Z,1.25
2019-02-07T00:15:24.422Z,1.25
2019-02-07T00:16:24.563Z,1.22
2019-02-07T00:17:24.709Z,1.26
2019-02-07T00:18:24.869Z,1.29
2019-02-07T00:19:25.012Z,1.37
2019-02-07T00:20:25.156Z,1.37
2019-02-07T00:21:25.297Z,1.43
2019-02-07T00:22:25.441Z,1.42
2019-02-07T00:23:25.591Z,1.44
2019-02-07T00:24:25.735Z,1.46
2019-02-07T00:25:25.880Z,1.44
2019-02-07T00:26:26.022Z,1.33
2019-02-07T00:27:26.166Z,1.29
2019-02-07T00:28:26.310Z,1.26
2019-02-07T00:29:26.452Z,1.14
2019-02-07T00:30:26.600Z,1.14
2019-02-07T00:31:26.739Z,1.25
2019-02-07T00:32:26.882Z,1.16
2019-02-07T00:33:27.029Z,1.21
2019-02-07T00:34:27.173Z,1.32
2019-02-07T00:35:27.323Z,1.28
2019-02-07T00:36:27.460Z,1.28
2019-02-07T00:37:27.602Z,1.16
2019-02-07T00:38:27.750Z,1.28
2019-02-07T00:39:27.891Z,1.04
2019-02-07T00:40:28.042Z,1.08
2019-02-07T00:41:28.181Z,0.98
2019-02-07T00:42:28.323Z,1.10
2019-02-07T00:43:28.468Z,1.06
2019-02-07T00:44:28.614Z,1.04
2019-02-07T00:45:28.755Z,1.06
2019-02-07T00:46:28.903Z,0.79
2019-02-07T00:47:29.044Z,0.82
2019-02-07T00:48:29.188Z,0.83
2019-02-07T00:49:29.331Z,0.76
2019-02-07T00:50:31.139Z,0.70
2019-02-07T00:51:29.619Z,0.65
2019-02-07T00:52:29.762Z,0.79
2019-02-07T00:53:29.907Z,0.70
2019-02-07T00:54:30.050Z,0.83
2019-02-07T00:55:30.195Z,0.79
2019-02-07T00:56:30.340Z,0.65
2019-02-07T00:57:30.483Z,0.67
2019-02-07T00:58:30.627Z,0.78
2019-02-07T00:59:30.769Z,0.76
2019-02-07T01:00:30.915Z,0.67
2019-02-07T01:01:31.067Z,0.72
2019-02-07T01:02:31.210Z,0.62
2019-02-07T01:03:31.353Z,0.80
2019-02-07T01:04:31.493Z,0.62
2019-02-07T01:05:31.638Z,0.86
2019-02-07T01:06:31.780Z,0.75
2019-02-07T01:07:31.923Z,0.76
2019-02-07T01:08:32.071Z,0.76
2019-02-07T01:09:32.213Z,0.76
2019-02-07T01:10:32.356Z,0.83
2019-02-07T01:11:32.500Z,0.88
2019-02-07T01:12:32.643Z,0.79
2019-02-07T01:13:32.786Z,0.88
2019-02-07T01:14:32.928Z,0.88
2019-02-07T01:15:33.076Z,0.88
2019-02-07T01:16:33.216Z,0.79
2019-02-07T01:17:33.362Z,0.79
2019-02-07T01:18:33.506Z,0.80
2019-02-07T01:19:33.651Z,0.75
2019-02-07T01:20:33.793Z,0.83
2019-02-07T01:21:33.935Z,0.79
2019-02-07T01:22:34.083Z,0.75
2019-02-07T01:23:34.226Z,0.83
2019-02-07T01:24:34.371Z,0.82
2019-02-07T01:25:34.511Z,0.80
2019-02-07T01:26:34.656Z,0.75
2019-02-07T01:27:34.800Z,0.76
2019-02-07T01:28:34.943Z,0.79
2019-02-07T01:29:35.087Z,0.88
2019-02-07T01:30:35.230Z,0.88
2019-02-07T01:31:35.374Z,0.80
2019-02-07T01:32:35.520Z,0.79
2019-02-07T01:33:35.664Z,0.71
2019-02-07T01:34:35.808Z,0.83
2019-02-07T01:35:35.949Z,0.79
2019-02-07T01:36:36.092Z,0.72
2019-02-07T01:37:36.237Z,0.79
2019-02-07T01:38:36.384Z,0.82
2019-02-07T01:39:36.523Z,0.82
2019-02-07T01:40:36.665Z,0.89
2019-02-07T01:41:36.808Z,0.94
2019-02-07T01:42:36.950Z,0.80
2019-02-07T01:43:37.093Z,0.80
2019-02-07T01:44:37.235Z,0.83
2019-02-07T01:45:37.378Z,0.89
2019-02-07T01:46:37.520Z,0.80
2019-02-07T01:47:37.665Z,0.70
2019-02-07T01:48:37.808Z,0.65
2019-02-07T01:49:37.952Z,0.64
2019-02-07T01:50:38.096Z,0.68
2019-02-07T01:51:38.237Z,0.78
2019-02-07T01:52:38.382Z,0.68
2019-02-07T01:53:38.525Z,0.57
2019-02-07T01:54:38.674Z,0.65
2019-02-07T01:55:38.813Z,0.57
2019-02-07T01:56:38.958Z,0.48
2019-02-07T01:57:39.103Z,0.48
2019-02-07T01:58:39.245Z,0.61
2019-02-07T01:59:39.386Z,0.64
2019-02-07T02:00:39.534Z,0.68
2019-02-07T02:01:39.677Z,0.51
2019-02-07T02:02:39.818Z,0.62
2019-02-07T02:03:39.962Z,0.65
2019-02-07T02:04:40.102Z,0.61
2019-02-07T02:05:40.249Z,0.68
2019-02-07T02:06:40.390Z,0.65
2019-02-07T02:07:40.533Z,0.71
2019-02-07T02:08:40.678Z,0.67
2019-02-07T02:09:40.818Z,0.75
2019-02-07T02:10:40.962Z,0.80
2019-02-07T02:11:41.106Z,0.89
2019-02-07T02:12:41.250Z,0.85
2019-02-07T02:13:41.391Z,0.89
2019-02-07T02:14:41.535Z,0.90
2019-02-07T02:15:41.678Z,0.82
2019-02-07T02:16:41.822Z,0.80
2019-02-07T02:17:41.965Z,0.78
2019-02-07T02:18:42.109Z,0.82
2019-02-07T02:19:42.257Z,0.82
2019-02-07T02:20:42.396Z,0.65
2019-02-07T02:21:42.540Z,0.82
2019-02-07T02:22:42.685Z,0.85
2019-02-07T02:23:42.827Z,0.78
2019-02-07T02:24:45.169Z,0.78
2019-02-07T02:25:43.110Z,0.82
2019-02-07T02:26:43.253Z,0.80
2019-02-07T02:27:43.396Z,0.82
2019-02-07T02:28:43.542Z,0.89
2019-02-07T02:29:43.684Z,0.97
2019-02-07T02:30:43.826Z,1.00
2019-02-07T02:31:43.968Z,0.88
2019-02-07T02:32:44.112Z,1.06
2019-02-07T02:33:44.358Z,1.08
2019-02-07T02:34:44.399Z,1.03
2019-02-07T02:35:44.541Z,1.04
2019-02-07T02:36:44.684Z,1.14
2019-02-07T02:37:44.825Z,1.08
2019-02-07T02:38:44.968Z,1.08
2019-02-07T02:39:45.110Z,1.19
2019-02-07T02:40:45.254Z,1.16
2019-02-07T02:41:45.399Z,1.24
2019-02-07T02:42:45.541Z,1.19
2019-02-07T02:43:45.688Z,1.04
2019-02-07T02:44:45.847Z,1.12
2019-02-07T02:45:45.970Z,1.14
2019-02-07T02:46:46.117Z,1.10
2019-02-07T02:47:46.260Z,1.14
2019-02-07T02:48:46.404Z,1.07
2019-02-07T02:49:46.547Z,1.01
2019-02-07T02:50:46.689Z,1.07
2019-02-07T02:51:46.829Z,1.08
2019-02-07T02:52:46.972Z,1.10
2019-02-07T02:53:47.119Z,0.96
2019-02-07T02:54:47.258Z,0.88
2019-02-07T02:55:47.402Z,1.00
2019-02-07T02:56:47.545Z,1.01
2019-02-07T02:57:47.688Z,1.04
2019-02-07T02:58:47.837Z,1.10
2019-02-07T02:59:47.983Z,1.06
2019-02-07T03:00:48.124Z,1.16
2019-02-07T03:01:48.264Z,1.21
2019-02-07T03:02:48.427Z,1.29
2019-02-07T03:03:48.551Z,1.24
2019-02-07T03:04:48.697Z,1.29
2019-02-07T03:05:48.840Z,1.36
2019-02-07T03:06:48.982Z,1.19
2019-02-07T03:07:49.129Z,1.26
2019-02-07T03:08:49.271Z,1.04
2019-02-07T03:09:49.414Z,1.08
2019-02-07T03:10:49.569Z,1.12
2019-02-07T03:11:49.705Z,1.12
2019-02-07T03:12:49.848Z,1.03
2019-02-07T03:13:49.992Z,0.97
2019-02-07T03:14:50.134Z,1.04
2019-02-07T03:15:50.283Z,1.07
2019-02-07T03:16:50.421Z,1.08
2019-02-07T03:17:50.569Z,1.12
2019-02-07T03:18:50.712Z,1.08
2019-02-07T03:19:50.852Z,1.03
2019-02-07T03:20:50.993Z,1.12
2019-02-07T03:21:51.138Z,1.12
2019-02-07T03:22:51.283Z,1.25
2019-02-07T03:23:51.429Z,1.07
2019-02-07T03:24:51.567Z,1.12
2019-02-07T03:25:51.715Z,1.12
2019-02-07T03:26:51.852Z,1.06
2019-02-07T03:27:51.995Z,1.03
2019-02-07T03:28:52.140Z,1.10
2019-02-07T03:29:52.281Z,1.08
2019-02-07T03:30:52.427Z,1.16
2019-02-07T03:31:52.573Z,1.16
2019-02-07T03:32:52.713Z,1.25
2019-02-07T03:33:52.861Z,1.22
2019-02-07T03:34:53.003Z,1.15
2019-02-07T03:35:53.147Z,1.21
2019-02-07T03:36:53.297Z,1.32
2019-02-07T03:37:53.433Z,1.29
2019-02-07T03:38:53.574Z,1.40
2019-02-07T03:39:53.717Z,1.42
2019-02-07T03:40:53.864Z,1.42
2019-02-07T03:41:54.005Z,1.43
2019-02-07T03:42:54.160Z,1.46
2019-02-07T03:43:54.293Z,1.43
2019-02-07T03:44:54.436Z,1.54
2019-02-07T03:46:02.346Z,1.47
2019-02-07T03:46:54.723Z,1.44
2019-02-07T03:47:54.871Z,1.58
2019-02-07T03:48:55.010Z,1.57
2019-02-07T03:49:55.154Z,1.57
2019-02-07T03:50:55.297Z,1.62
2019-02-07T03:51:55.444Z,1.68
2019-02-07T03:52:55.587Z,1.65
2019-02-07T03:53:55.731Z,1.55
2019-02-07T03:54:55.874Z,1.58
2019-02-07T03:55:56.020Z,1.75
2019-02-07T03:56:56.164Z,1.72
2019-02-07T03:57:56.308Z,1.79
2019-02-07T03:58:56.448Z,1.79
2019-02-07T03:59:56.592Z,1.76
2019-02-07T04:00:56.736Z,1.79
2019-02-07T04:01:56.882Z,1.82
2019-02-07T04:02:57.028Z,1.75
2019-02-07T04:03:57.169Z,1.83
2019-02-07T04:04:57.326Z,1.75
2019-02-07T04:05:57.460Z,1.75
2019-02-07T04:06:57.608Z,1.72
2019-02-07T04:07:57.753Z,1.65
2019-02-07T04:08:57.893Z,1.62
2019-02-07T04:09:58.039Z,1.65
2019-02-07T04:10:58.192Z,1.57
2019-02-07T04:11:58.325Z,1.51
2019-02-07T04:12:58.469Z,1.58
2019-02-07T04:13:58.611Z,1.57
2019-02-07T04:14:58.759Z,1.62
2019-02-07T04:15:58.901Z,1.52
2019-02-07T04:16:59.049Z,1.55
2019-02-07T04:17:59.191Z,1.47
2019-02-07T04:18:59.336Z,1.51
2019-02-07T04:19:59.479Z,1.44
2019-02-07T04:20:59.621Z,1.55
2019-02-07T04:21:59.764Z,1.55
2019-02-07T04:22:59.907Z,1.65
2019-02-07T04:24:00.053Z,1.85
2019-02-07T04:25:00.439Z,1.60
2019-02-07T04:26:00.339Z,1.60
2019-02-07T04:27:00.480Z,1.62
2019-02-07T04:28:00.627Z,1.55
2019-02-07T04:29:00.771Z,1.58
2019-02-07T04:30:00.913Z,1.61
2019-02-07T04:31:01.058Z,1.47
2019-02-07T04:32:01.238Z,1.55
2019-02-07T04:33:01.357Z,1.46
2019-02-07T04:34:01.493Z,1.39
2019-02-07T04:35:01.643Z,1.47
2019-02-07T04:36:01.790Z,1.46
2019-02-07T04:37:01.919Z,1.46
2019-02-07T04:38:02.062Z,1.62
2019-02-07T04:39:02.205Z,1.57
2019-02-07T04:40:02.371Z,1.54
2019-02-07T04:41:02.502Z,1.58
2019-02-07T04:42:02.641Z,1.58
2019-02-07T04:43:02.784Z,1.61
2019-02-07T04:44:02.927Z,1.58
2019-02-07T04:45:03.087Z,1.69
2019-02-07T04:46:03.215Z,1.60
2019-02-07T04:47:03.361Z,1.72
2019-02-07T04:48:03.504Z,1.75
2019-02-07T04:49:03.649Z,1.75
2019-02-07T04:50:03.793Z,1.71
2019-02-07T04:51:04.035Z,1.73
2019-02-07T04:52:04.079Z,1.75
2019-02-07T04:53:04.225Z,1.60
2019-02-07T04:54:04.369Z,1.65
2019-02-07T04:55:04.515Z,1.62
2019-02-07T04:56:04.658Z,1.69
2019-02-07T04:57:04.803Z,1.65
2019-02-07T04:58:04.947Z,1.69
2019-02-07T04:59:05.095Z,1.61
2019-02-07T05:00:05.233Z,1.68
2019-02-07T05:01:05.378Z,1.64
2019-02-07T05:02:05.527Z,1.73
2019-02-07T05:03:05.665Z,1.79
2019-02-07T05:04:05.809Z,1.89
2019-02-07T05:05:06.057Z,1.90
2019-02-07T05:06:06.097Z,1.83
2019-02-07T05:07:06.242Z,1.87
2019-02-07T05:08:06.384Z,1.89
2019-02-07T05:09:06.527Z,1.89
2019-02-07T05:10:06.672Z,1.98
2019-02-07T05:11:06.814Z,1.98
2019-02-07T05:12:06.958Z,1.87
2019-02-07T05:13:07.102Z,1.87
2019-02-07T05:14:07.246Z,1.87
2019-02-07T05:15:07.392Z,1.87
2019-02-07T05:16:07.538Z,1.90
2019-02-07T05:17:07.687Z,1.93
2019-02-07T05:18:07.821Z,1.87
2019-02-07T05:19:07.968Z,1.93
2019-02-07T05:20:08.114Z,1.93
2019-02-07T05:21:08.255Z,1.93
2019-02-07T05:22:08.400Z,2.04
2019-02-07T05:23:08.542Z,1.99
2019-02-07T05:24:08.686Z,2.01
2019-02-07T05:25:08.829Z,1.99
2019-02-07T05:26:08.973Z,2.01
2019-02-07T05:27:09.119Z,2.09
2019-02-07T05:28:09.262Z,2.10
2019-02-07T05:29:09.418Z,2.08
2019-02-07T05:30:09.549Z,2.16
2019-02-07T05:31:09.694Z,2.09
2019-02-07T05:32:09.839Z,2.08
2019-02-07T05:33:09.983Z,2.22
2019-02-07T05:34:10.127Z,2.10
2019-02-07T05:35:10.272Z,2.22
2019-02-07T05:36:10.417Z,2.13
2019-02-07T05:37:10.569Z,2.19
2019-02-07T05:38:10.703Z,2.28
2019-02-07T05:39:10.848Z,2.33
2019-02-07T05:40:10.988Z,2.31
2019-02-07T05:41:11.133Z,2.34
2019-02-07T05:42:11.281Z,2.35
2019-02-07T05:43:11.426Z,2.53
2019-02-07T05:44:11.566Z,2.48
2019-02-07T05:45:11.709Z,2.37
2019-02-07T05:46:11.858Z,2.45
2019-02-07T05:47:12.001Z,2.37
2019-02-07T05:48:12.145Z,2.55
2019-02-07T05:49:12.289Z,2.53
2019-02-07T05:50:12.432Z,2.56
2019-02-07T05:51:12.576Z,2.52
2019-02-07T05:52:12.721Z,2.46
2019-02-07T05:53:12.865Z,2.46
2019-02-07T05:54:13.011Z,2.49
2019-02-07T05:55:13.154Z,2.41
2019-02-07T05:56:13.297Z,2.45
2019-02-07T05:57:13.442Z,2.44
2019-02-07T05:58:13.586Z,2.40
2019-02-07T05:59:13.731Z,2.41
2019-02-07T06:00:13.927Z,2.49
2019-02-07T06:01:14.016Z,2.52
2019-02-07T06:02:14.163Z,2.52
2019-02-07T06:03:14.306Z,2.61
2019-02-07T06:04:14.470Z,2.59
2019-02-07T06:05:14.596Z,2.52
2019-02-07T06:06:14.741Z,2.59
2019-02-07T06:07:14.888Z,2.55
2019-02-07T06:08:15.032Z,2.55
2019-02-07T06:09:15.174Z,2.48
2019-02-07T06:10:15.321Z,2.56
2019-02-07T06:11:15.464Z,2.53
2019-02-07T06:12:15.609Z,2.49
2019-02-07T06:13:15.754Z,2.52
2019-02-07T06:14:15.905Z,2.52
2019-02-07T06:15:16.043Z,2.58
2019-02-07T06:16:16.187Z,2.56
2019-02-07T06:17:16.332Z,2.63
2019-02-07T06:18:16.478Z,2.61
2019-02-07T06:19:16.622Z,2.69
2019-02-07T06:20:16.769Z,2.63
2019-02-07T06:21:16.914Z,2.59
2019-02-07T06:22:17.057Z,2.55
2019-02-07T06:23:17.204Z,2.51
2019-02-07T06:24:17.346Z,2.53
2019-02-07T06:25:17.513Z,2.58
2019-02-07T06:26:17.635Z,2.45
2019-02-07T06:27:17.778Z,2.44
2019-02-07T06:28:17.921Z,2.46
2019-02-07T06:29:18.065Z,2.44
2019-02-07T06:30:18.208Z,2.44
2019-02-07T06:31:18.386Z,2.28
2019-02-07T06:32:18.530Z,2.35
2019-02-07T06:33:18.672Z,2.27
2019-02-07T06:34:28.782Z,2.40
2019-02-07T06:35:18.965Z,2.33
2019-02-07T06:36:19.110Z,2.28
2019-02-07T06:37:19.248Z,2.28
2019-02-07T06:38:19.393Z,2.34
2019-02-07T06:39:19.539Z,2.28
2019-02-07T06:40:19.682Z,2.34
2019-02-07T06:41:19.825Z,2.27
2019-02-07T06:42:19.970Z,2.27
2019-02-07T06:43:20.115Z,2.28
2019-02-07T06:44:20.245Z,2.26
2019-02-07T06:45:20.390Z,2.19
2019-02-07T06:46:20.534Z,2.19
2019-02-07T06:47:20.676Z,2.16
2019-02-07T06:48:20.819Z,2.22
2019-02-07T06:49:20.965Z,2.27
2019-02-07T06:50:21.108Z,2.15
2019-02-07T06:51:21.252Z,2.16
2019-02-07T06:52:21.402Z,2.20
2019-02-07T06:53:21.545Z,2.33
2019-02-07T06:54:21.692Z,2.40
2019-02-07T06:55:21.838Z,2.38
2019-02-07T06:56:21.981Z,2.46
2019-02-07T06:57:22.127Z,2.41
2019-02-07T06:58:22.270Z,2.37
2019-02-07T06:59:22.416Z,2.44
2019-02-07T07:00:22.561Z,2.40
2019-02-07T07:01:22.703Z,2.41
2019-02-07T07:02:22.847Z,2.33
2019-02-07T07:03:22.991Z,2.40
2019-02-07T07:04:23.135Z,2.46
2019-02-07T07:05:23.283Z,2.51
2019-02-07T07:06:23.423Z,2.41
2019-02-07T07:07:23.567Z,2.41
2019-02-07T07:08:23.750Z,2.44
2019-02-07T07:09:23.856Z,2.40
2019-02-07T07:10:23.998Z,2.45
2019-02-07T07:11:24.143Z,2.40
2019-02-07T07:12:24.289Z,2.44
2019-02-07T07:13:24.431Z,2.48
2019-02-07T07:14:24.576Z,2.44
2019-02-07T07:15:24.718Z,2.48
2019-02-07T07:16:24.863Z,2.44
2019-02-07T07:17:26.338Z,2.58
2019-02-07T07:18:25.150Z,2.53
2019-02-07T07:19:25.295Z,2.45
2019-02-07T07:20:25.439Z,2.41
2019-02-07T07:21:25.582Z,2.53
2019-02-07T07:22:25.727Z,2.53
2019-02-07T07:23:25.868Z,2.53
2019-02-07T07:24:26.012Z,2.61
2019-02-07T07:25:26.156Z,2.58
2019-02-07T07:26:26.299Z,2.59
2019-02-07T07:27:26.444Z,2.66
2019-02-07T07:28:26.586Z,2.63
2019-02-07T07:29:26.732Z,2.63
2019-02-07T07:30:26.877Z,2.61
2019-02-07T07:31:27.021Z,2.66
2019-02-07T07:32:27.168Z,2.70
2019-02-07T07:33:27.307Z,2.74
2019-02-07T07:34:27.456Z,2.64
2019-02-07T07:35:27.597Z,2.64
2019-02-07T07:36:27.742Z,2.70
2019-02-07T07:37:27.992Z,2.64
2019-02-07T07:38:28.032Z,2.64
2019-02-07T07:39:28.173Z,2.73
2019-02-07T07:40:28.319Z,2.71
2019-02-07T07:41:28.458Z,2.79
2019-02-07T07:42:28.602Z,2.74
2019-02-07T07:43:30.443Z,2.79
2019-02-07T07:44:28.892Z,2.64
2019-02-07T07:45:29.035Z,2.69
2019-02-07T07:46:29.181Z,2.76
2019-02-07T07:47:35.678Z,2.76
2019-02-07T07:48:29.469Z,2.77
2019-02-07T07:49:29.616Z,2.71
2019-02-07T07:50:29.766Z,2.73
2019-02-07T07:51:29.905Z,2.71
2019-02-07T07:52:30.047Z,2.77
2019-02-07T07:53:30.194Z,2.84
2019-02-07T07:54:30.335Z,2.71
2019-02-07T07:55:30.486Z,2.70
2019-02-07T07:56:30.622Z,2.63
2019-02-07T07:57:30.767Z,2.76
2019-02-07T07:58:30.910Z,2.79
2019-02-07T07:59:31.057Z,2.79
2019-02-07T08:00:31.197Z,2.73
2019-02-07T08:01:31.342Z,2.70
2019-02-07T08:02:31.486Z,2.70
2019-02-07T08:03:31.631Z,2.76
2019-02-07T08:04:31.768Z,2.76
2019-02-07T08:05:31.926Z,2.81
2019-02-07T08:06:32.069Z,2.81
2019-02-07T08:07:32.214Z,2.77
2019-02-07T08:08:32.360Z,2.85
2019-02-07T08:09:32.502Z,2.77
2019-02-07T08:10:32.649Z,2.91
2019-02-07T08:11:32.794Z,2.85
2019-02-07T08:12:32.938Z,2.97
2019-02-07T08:13:33.082Z,2.92
2019-02-07T08:14:33.225Z,2.89
2019-02-07T08:15:33.372Z,2.82
2019-02-07T08:16:33.516Z,2.84
2019-02-07T08:17:33.659Z,2.82
2019-02-07T08:18:33.804Z,2.81
2019-02-07T08:19:33.947Z,2.70
2019-02-07T08:20:34.092Z,2.95
2019-02-07T08:21:34.236Z,2.89
2019-02-07T08:22:34.380Z,2.95
2019-02-07T08:23:34.524Z,2.91
2019-02-07T08:24:34.670Z,2.87
2019-02-07T08:25:34.898Z,2.91
2019-02-07T08:26:34.959Z,3.03
2019-02-07T08:27:35.104Z,2.98
2019-02-07T08:28:35.248Z,3.03
2019-02-07T08:29:35.392Z,3.10
2019-02-07T08:30:36.739Z,3.09
2019-02-07T08:31:35.686Z,3.07
2019-02-07T08:32:35.825Z,2.95
2019-02-07T08:33:35.970Z,3.05
2019-02-07T08:34:36.114Z,3.13
2019-02-07T08:35:36.259Z,3.13
2019-02-07T08:36:36.406Z,3.09
2019-02-07T08:37:36.548Z,3.05
2019-02-07T08:38:36.692Z,2.94
2019-02-07T08:39:36.837Z,2.94
2019-02-07T08:40:36.982Z,3.05
2019-02-07T08:41:37.125Z,3.06
2019-02-07T08:42:37.270Z,3.03
2019-02-07T08:43:37.413Z,3.09
2019-02-07T08:44:37.560Z,3.09
2019-02-07T08:45:37.706Z,3.10
2019-02-07T08:46:37.852Z,3.13
2019-02-07T08:47:38.002Z,3.07
2019-02-07T08:48:38.142Z,3.10
2019-02-07T08:49:38.285Z,3.31
2019-02-07T08:50:38.428Z,3.47
2019-02-07T08:51:38.573Z,3.27
2019-02-07T08:52:38.717Z,3.36
2019-02-07T08:53:38.867Z,3.34
2019-02-07T08:54:39.003Z,3.30
2019-02-07T08:55:39.150Z,3.27
2019-02-07T08:56:39.291Z,3.24
2019-02-07T08:57:39.435Z,3.06
2019-02-07T08:58:39.693Z,3.09
2019-02-07T08:59:39.725Z,3.02
2019-02-07T09:00:39.872Z,3.13
2019-02-07T09:01:40.014Z,3.16
2019-02-07T09:02:50.322Z,3.20
2019-02-07T09:03:40.303Z,3.10
2019-02-07T09:04:40.453Z,3.21
2019-02-07T09:05:40.595Z,3.25
2019-02-07T09:06:40.742Z,3.28
2019-02-07T09:07:40.885Z,3.13
2019-02-07T09:08:41.031Z,3.07
2019-02-07T09:09:41.175Z,3.13
2019-02-07T09:10:41.321Z,3.15
2019-02-07T09:11:41.465Z,3.15
2019-02-07T09:12:41.611Z,3.07
2019-02-07T09:13:41.755Z,3.10
2019-02-07T09:14:41.900Z,3.10
2019-02-07T09:15:42.045Z,3.24
2019-02-07T09:16:42.259Z,3.20
2019-02-07T09:17:42.339Z,3.07
2019-02-07T09:18:42.483Z,3.10
2019-02-07T09:19:42.630Z,3.13
2019-02-07T09:20:42.780Z,3.15
2019-02-07T09:21:42.930Z,3.18
2019-02-07T09:22:43.071Z,3.24
2019-02-07T09:23:43.215Z,3.30
2019-02-07T09:24:43.359Z,3.18
2019-02-07T09:25:43.512Z,3.23
2019-02-07T09:26:43.653Z,3.09
2019-02-07T09:27:43.798Z,3.21
2019-02-07T09:28:43.945Z,3.16
2019-02-07T09:29:44.088Z,3.06
2019-02-07T09:30:44.232Z,3.09
2019-02-07T09:31:44.379Z,3.09
2019-02-07T09:32:44.524Z,3.07
2019-02-07T09:33:44.668Z,3.28
2019-02-07T09:34:44.815Z,3.12
2019-02-07T09:35:44.959Z,3.09
2019-02-07T09:36:45.105Z,3.23
2019-02-07T09:37:45.249Z,3.13
2019-02-07T09:38:45.395Z,3.09
2019-02-07T09:39:45.536Z,3.09
2019-02-07T09:40:45.684Z,3.12
2019-02-07T09:41:45.830Z,2.95
2019-02-07T09:42:45.973Z,3.15
2019-02-07T09:43:46.123Z,3.03
2019-02-07T09:44:46.269Z,3.15
2019-02-07T09:45:46.415Z,3.27
2019-02-07T09:46:46.557Z,3.25
2019-02-07T09:47:46.704Z,3.24
2019-02-07T09:48:46.848Z,3.23
2019-02-07T09:49:46.993Z,3.16
2019-02-07T09:50:47.142Z,3.18
2019-02-07T09:51:47.282Z,3.23
2019-02-07T09:52:47.431Z,3.18
2019-02-07T09:53:47.582Z,3.15
2019-02-07T09:54:47.786Z,3.00
2019-02-07T09:55:47.868Z,3.02
2019-02-07T09:56:48.014Z,3.02
2019-02-07T09:57:48.161Z,3.07
2019-02-07T09:58:48.310Z,3.02
2019-02-07T09:59:48.473Z,3.03
2019-02-07T10:00:48.590Z,3.36
2019-02-07T10:01:48.737Z,3.27
2019-02-07T10:02:48.887Z,3.21
2019-02-07T10:03:49.031Z,3.24
2019-02-07T10:04:49.176Z,3.25
2019-02-07T10:05:49.322Z,3.30
2019-02-07T10:06:49.467Z,3.23
2019-02-07T10:07:49.615Z,3.31
2019-02-07T10:08:49.756Z,3.10
2019-02-07T10:09:49.912Z,2.98
2019-02-07T10:10:50.051Z,2.98
2019-02-07T10:11:50.191Z,2.98
2019-02-07T10:12:50.337Z,2.97
2019-02-07T10:13:50.482Z,3.06
2019-02-07T10:14:50.630Z,3.13
2019-02-07T10:15:50.778Z,3.23
2019-02-07T10:16:50.922Z,3.18
2019-02-07T10:17:51.058Z,3.10
2019-02-07T10:18:51.221Z,3.18
2019-02-07T10:19:51.370Z,3.30
2019-02-07T10:20:51.515Z,3.25
2019-02-07T10:21:51.664Z,3.07
2019-02-07T10:22:51.807Z,3.13
2019-02-07T10:23:51.961Z,3.13
2019-02-07T10:24:52.093Z,3.13
2019-02-07T10:25:52.239Z,3.09
2019-02-07T10:26:52.384Z,3.10
2019-02-07T10:27:52.530Z,3.05
2019-02-07T10:28:52.674Z,3.05
2019-02-07T10:29:52.818Z,3.02
2019-02-07T10:30:52.963Z,2.94
2019-02-07T10:31:53.111Z,2.97
2019-02-07T10:32:53.254Z,2.95
2019-02-07T10:33:53.404Z,2.92
2019-02-07T10:34:53.551Z,3.03
2019-02-07T10:35:53.694Z,2.98
2019-02-07T10:36:53.841Z,2.98
2019-02-07T10:37:53.986Z,2.91
2019-02-07T10:38:54.131Z,2.91
2019-02-07T10:39:54.279Z,2.88
2019-02-07T10:40:54.533Z,2.73
2019-02-07T10:41:54.568Z,2.84
2019-02-07T10:42:54.708Z,2.95
2019-02-07T10:43:54.854Z,2.87
2019-02-07T10:44:54.999Z,2.98
2019-02-07T10:45:55.144Z,2.91
2019-02-07T10:46:55.289Z,2.89
2019-02-07T10:47:55.435Z,2.94
2019-02-07T10:48:55.577Z,2.97
2019-02-07T10:49:59.472Z,3.07
2019-02-07T10:50:55.864Z,3.12
2019-02-07T10:51:56.009Z,3.15
2019-02-07T10:52:56.154Z,3.21
2019-02-07T10:53:56.301Z,3.13
2019-02-07T10:54:56.444Z,3.07
2019-02-07T10:55:56.594Z,3.12
2019-02-07T10:56:56.733Z,3.20
2019-02-07T10:57:56.879Z,3.27
2019-02-07T10:58:57.025Z,3.27
2019-02-07T10:59:57.170Z,3.23
2019-02-07T11:00:57.315Z,3.28
2019-02-07T11:01:57.465Z,3.46
2019-02-07T11:02:57.604Z,3.52
2019-02-07T11:03:57.751Z,3.53
2019-02-07T11:04:57.896Z,3.42
2019-02-07T11:05:58.042Z,3.43
2019-02-07T11:06:58.189Z,3.47
2019-02-07T11:07:58.332Z,3.40
2019-02-07T11:08:58.476Z,3.52
2019-02-07T11:09:58.629Z,3.28
2019-02-07T11:10:58.772Z,3.31
2019-02-07T11:11:58.918Z,3.31
2019-02-07T11:12:59.063Z,3.27
2019-02-07T11:13:59.208Z,3.33
2019-02-07T11:14:59.362Z,3.28
2019-02-07T11:15:59.508Z,3.28
2019-02-07T11:16:59.650Z,3.31
2019-02-07T11:17:59.793Z,3.24
2019-02-07T11:18:59.940Z,3.33
2019-02-07T11:20:00.139Z,3.52
2019-02-07T11:21:00.231Z,3.52
2019-02-07T11:22:00.377Z,3.47
2019-02-07T11:23:00.523Z,3.40
2019-02-07T11:24:00.819Z,3.46
2019-02-07T11:25:00.819Z,3.36
2019-02-07T11:26:00.964Z,3.30
2019-02-07T11:27:01.102Z,3.44
2019-02-07T11:28:10.126Z,3.50
2019-02-07T11:29:01.394Z,3.49
2019-02-07T11:30:01.538Z,3.58
2019-02-07T11:31:01.686Z,3.68
2019-02-07T11:32:01.830Z,3.65
2019-02-07T11:33:01.976Z,3.54
2019-02-07T11:34:02.117Z,3.49
2019-02-07T11:35:02.267Z,3.42
2019-02-07T11:36:02.409Z,3.46
2019-02-07T11:37:02.555Z,3.39
2019-02-07T11:38:02.705Z,3.42
2019-02-07T11:39:02.848Z,3.44
2019-02-07T11:40:02.995Z,3.28
2019-02-07T11:41:03.139Z,3.42
2019-02-07T11:42:03.281Z,3.46
2019-02-07T11:43:03.429Z,3.52
2019-02-07T11:44:03.575Z,3.68
2019-02-07T11:45:03.723Z,3.71
2019-02-07T11:46:03.865Z,3.62
2019-02-07T11:47:05.649Z,3.71
2019-02-07T11:48:04.158Z,3.79
2019-02-07T11:49:06.940Z,3.86
2019-02-07T11:50:04.454Z,3.94
2019-02-07T11:51:04.594Z,3.85
2019-02-07T11:52:04.741Z,3.82
2019-02-07T11:53:04.886Z,3.68
2019-02-07T11:54:05.031Z,3.67
2019-02-07T11:55:05.180Z,3.62
2019-02-07T11:56:05.328Z,3.50
2019-02-07T11:57:05.472Z,3.44
2019-02-07T11:58:05.617Z,3.52
2019-02-07T11:59:05.760Z,3.52
2019-02-07T12:00:05.925Z,3.60
2019-02-07T12:01:06.048Z,3.50
2019-02-07T12:02:09.274Z,3.40
2019-02-07T12:03:06.427Z,3.44
2019-02-07T12:04:06.487Z,3.49
2019-02-07T12:05:06.632Z,3.50
2019-02-07T12:06:08.656Z,3.46
2019-02-07T12:07:06.923Z,3.50
2019-02-07T12:08:07.069Z,3.49
2019-02-07T12:09:07.217Z,3.49
2019-02-07T12:10:07.360Z,3.47
2019-02-07T12:11:07.506Z,3.49
2019-02-07T12:12:07.651Z,3.44
2019-02-07T12:13:07.796Z,3.40
2019-02-07T12:14:07.939Z,3.39
2019-02-07T12:15:08.094Z,3.40
2019-02-07T12:16:08.246Z,3.46
2019-02-07T12:17:08.384Z,3.46
2019-02-07T12:18:08.534Z,3.47
2019-02-07T12:19:17.828Z,3.40
2019-02-07T12:20:08.830Z,3.39
2019-02-07T12:21:08.975Z,3.40
2019-02-07T12:22:09.120Z,3.43
2019-02-07T12:23:09.270Z,3.39
2019-02-07T12:24:09.413Z,3.44
2019-02-07T12:25:09.559Z,3.46
2019-02-07T12:26:09.705Z,3.49
2019-02-07T12:27:09.867Z,3.49
2019-02-07T12:28:10.012Z,3.42
2019-02-07T12:29:10.155Z,3.40
2019-02-07T12:30:10.298Z,3.49
2019-02-07T12:31:10.449Z,3.50
2019-02-07T12:32:10.587Z,3.57
2019-02-07T12:33:10.732Z,3.60
2019-02-07T12:34:10.877Z,3.52
2019-02-07T12:35:11.022Z,3.50
2019-02-07T12:36:11.170Z,3.49
2019-02-07T12:37:11.316Z,3.62
2019-02-07T12:38:11.464Z,3.43
2019-02-07T12:39:11.608Z,3.46
2019-02-07T12:40:11.760Z,3.47
2019-02-07T12:41:11.899Z,3.49
2019-02-07T12:42:12.045Z,3.64
2019-02-07T12:43:12.189Z,3.60
2019-02-07T12:44:12.342Z,3.60
2019-02-07T12:45:12.496Z,3.68
2019-02-07T12:46:12.636Z,3.53
2019-02-07T12:47:12.781Z,3.71
2019-02-07T12:48:12.923Z,3.68
2019-02-07T12:49:13.070Z,3.67
2019-02-07T12:50:13.217Z,3.50
2019-02-07T12:51:13.359Z,3.58
2019-02-07T12:52:13.509Z,3.61
2019-02-07T12:53:13.652Z,3.68
2019-02-07T12:54:13.797Z,3.62
2019-02-07T12:55:13.942Z,3.65
2019-02-07T12:56:14.087Z,3.64
2019-02-07T12:57:14.228Z,3.62
2019-02-07T12:58:14.375Z,3.60
2019-02-07T12:59:14.519Z,3.60
2019-02-07T13:00:14.663Z,3.65
2019-02-07T13:01:14.808Z,3.61
2019-02-07T13:02:14.955Z,3.58
2019-02-07T13:03:15.097Z,3.71
2019-02-07T13:04:15.247Z,3.71
2019-02-07T13:05:15.392Z,3.86
2019-02-07T13:06:15.538Z,3.68
2019-02-07T13:07:15.686Z,3.65
2019-02-07T13:08:15.836Z,3.70
2019-02-07T13:09:15.979Z,3.70
2019-02-07T13:10:16.120Z,3.79
2019-02-07T13:11:16.265Z,3.70
2019-02-07T13:12:16.413Z,3.70
2019-02-07T13:13:16.558Z,3.61
2019-02-07T13:14:16.705Z,3.68
2019-02-07T13:15:16.899Z,3.71
2019-02-07T13:16:17.026Z,3.68
2019-02-07T13:17:17.182Z,3.76
2019-02-07T13:18:17.314Z,3.67
2019-02-07T13:19:17.446Z,3.62
2019-02-07T13:20:17.606Z,3.71